Terminal Aerodrome Forecast
Issued by NWS Jacksonville, FL

Home | Current Version | Previous Version | Text Only | Print | Product List | Glossary On
Versions: 1 2 3 4 5 6 7 8 9 10 11 12 13 14
178
FTUS42 KJAX 301737
TAFJAX
TAF
KJAX 301737Z 3018/3118 15005KT P6SM VCTS SCT040CB BKN100
      TEMPO 3018/3021 VRB15G25KT 5SM TSRA BKN035CB
     FM310100 19006KT P6SM SCT050 BKN150 BKN250
     FM310500 22003KT P6SM SCT150 BKN250
     FM311500 23004KT P6SM SCT025 BKN200=

USA.gov is the U.S. government's official web portal to all federal, state and local government web resources and services.